Time;durP1;ratioP1;P1;durP2;ratioP2;P2;SDS_P1;SDS_P2;PMS_P1;PMS_P2;Temp;Humidity;BMP_temperature;BMP_pressure;BME280_temperature;BME280_humidity;BME280_pressure;Samples;Min_cycle;Max_cycle;Signal;HPM_P1;HPM_P2
2022/03/17 00:01:12;;;;;;;21.50;11.32;;;;;;;-148.16;100.00;58328.31;5038082;28;20120;-76
2022/03/17 00:03:56;;;;;;;21.73;11.57;;;;;;;-148.16;100.00;58328.31;5034210;28;20121;-74
2022/03/17 00:06:44;;;;;;;27.00;14.27;;;;;;;-148.16;100.00;58328.31;5020971;28;20053;-70
2022/03/17 00:09:28;;;;;;;19.65;11.23;;;;;;;-148.16;100.00;58328.31;5034761;28;20044;-69
2022/03/17 00:12:14;;;;;;;20.52;11.95;;;;;;;-148.16;100.00;58328.31;5034155;28;20046;-75
2022/03/17 00:14:58;;;;;;;24.58;13.75;;;;;;;-148.16;100.00;58328.31;5034566;28;20045;-75
2022/03/17 00:17:45;;;;;;;27.08;15.15;;;;;;;-148.16;100.00;58328.31;5019529;28;20049;-75
2022/03/17 00:20:30;;;;;;;23.58;13.43;;;;;;;-148.16;100.00;58328.31;5033436;28;20069;-70
2022/03/17 00:23:15;;;;;;;20.27;11.75;;;;;;;-148.16;100.00;58328.31;5034140;28;20511;-76
2022/03/17 00:25:59;;;;;;;21.52;11.82;;;;;;;-148.16;100.00;58328.31;5033944;28;20064;-76
2022/03/17 00:28:44;;;;;;;23.40;11.95;;;;;;;-148.16;100.00;58328.31;5033846;28;20505;-75
2022/03/17 00:31:29;;;;;;;20.35;11.45;;;;;;;-148.16;100.00;58328.31;5046247;28;20507;-75
2022/03/17 00:34:14;;;;;;;21.90;11.57;;;;;;;-148.16;100.00;58328.31;5033961;28;20057;-73
2022/03/17 00:36:59;;;;;;;20.48;11.52;;;;;;;-148.16;100.00;58328.31;5051422;28;20473;-72
2022/03/17 00:39:45;;;;;;;19.83;11.02;;;;;;;-148.16;100.00;58328.31;5038222;28;20049;-74
2022/03/17 00:42:29;;;;;;;23.58;12.07;;;;;;;-148.16;100.00;58328.31;5034374;28;20046;-76
2022/03/17 00:45:15;;;;;;;23.13;12.38;;;;;;;-148.16;100.00;58328.31;5042752;28;20049;-76
2022/03/17 00:47:59;;;;;;;20.58;12.23;;;;;;;-148.16;100.00;58328.31;5042041;28;20095;-76
2022/03/17 00:50:44;;;;;;;20.08;11.45;;;;;;;-148.16;100.00;58328.31;5047071;28;20100;-78
2022/03/17 00:53:30;;;;;;;21.73;12.20;;;;;;;-148.16;100.00;58328.31;5032912;28;20052;-75
2022/03/17 00:56:15;;;;;;;22.42;11.88;;;;;;;-148.16;100.00;58328.31;5032241;28;20481;-75
2022/03/17 00:59:00;;;;;;;21.05;11.73;;;;;;;-148.16;100.00;58328.31;5032464;28;20048;-74
2022/03/17 01:01:45;;;;;;;23.63;11.65;;;;;;;-148.16;100.00;58328.31;5033480;28;20045;-73
2022/03/17 01:04:30;;;;;;;21.92;11.48;;;;;;;-148.16;100.00;58328.31;5032352;28;20041;-74
2022/03/17 01:07:14;;;;;;;24.67;12.77;;;;;;;-148.16;100.00;58328.31;5026387;28;20040;-75
2022/03/17 01:10:00;;;;;;;28.02;14.70;;;;;;;-148.16;100.00;58328.31;5046358;28;20072;-75
2022/03/17 01:12:46;;;;;;;21.83;11.68;;;;;;;-148.16;100.00;58328.31;5032928;28;20088;-76
2022/03/17 01:15:31;;;;;;;24.05;12.55;;;;;;;-148.16;100.00;58328.31;5033195;28;20057;-76
2022/03/17 01:18:16;;;;;;;25.60;12.52;;;;;;;-148.16;100.00;58328.31;5032879;28;20107;-76
2022/03/17 01:21:00;;;;;;;25.52;13.57;;;;;;;-148.16;100.00;58328.31;5031913;28;20139;-76
2022/03/17 01:23:45;;;;;;;22.83;12.63;;;;;;;-148.16;100.00;58328.31;5032318;28;20108;-76
2022/03/17 01:26:30;;;;;;;24.23;14.15;;;;;;;-148.16;100.00;58328.31;5032249;28;20072;-76
2022/03/17 01:29:15;;;;;;;25.08;14.75;;;;;;;-148.16;100.00;58328.31;5017994;28;20614;-71
2022/03/17 01:32:00;;;;;;;24.67;13.38;;;;;;;-148.16;100.00;58328.31;5045824;28;20045;-74
2022/03/17 01:34:46;;;;;;;23.17;11.93;;;;;;;-148.16;100.00;58328.31;5032151;28;20095;-75
2022/03/17 01:37:32;;;;;;;20.85;12.50;;;;;;;-148.16;100.00;58328.31;5032873;28;20049;-76
2022/03/17 01:40:17;;;;;;;25.60;14.30;;;;;;;-148.16;100.00;58328.31;5011779;28;20513;-75
2022/03/17 01:43:02;;;;;;;24.45;14.40;;;;;;;-148.16;100.00;58328.31;5023081;28;20053;-73
2022/03/17 01:45:47;;;;;;;20.88;11.68;;;;;;;-148.16;100.00;58328.31;5027837;28;20038;-72
2022/03/17 01:48:32;;;;;;;30.35;16.33;;;;;;;-148.16;100.00;58328.31;5028293;28;20762;-73
2022/03/17 01:51:17;;;;;;;35.35;16.73;;;;;;;-148.16;100.00;58328.31;5030888;28;20045;-73
2022/03/17 01:54:01;;;;;;;26.08;15.02;;;;;;;-148.16;100.00;58328.31;5031521;28;20497;-75
2022/03/17 01:56:47;;;;;;;31.20;16.20;;;;;;;-148.16;100.00;58328.31;5031415;28;20046;-73
2022/03/17 01:59:37;;;;;;;29.02;15.40;;;;;;;-148.16;100.00;58328.31;5034956;28;20046;-75
2022/03/17 02:02:22;;;;;;;31.45;16.52;;;;;;;-148.16;100.00;58328.31;5031523;28;20151;-76
2022/03/17 02:05:07;;;;;;;30.17;16.52;;;;;;;-148.16;100.00;58328.31;5030814;28;20489;-76
2022/03/17 02:07:52;;;;;;;28.42;14.60;;;;;;;-148.16;100.00;58328.31;5031085;28;20037;-73
2022/03/17 02:13:41;;;;;;;25.60;13.45;;;;;;;-148.16;100.00;58328.31;5031226;28;20049;-76
2022/03/17 02:16:30;;;;;;;21.85;11.27;;;;;;;-148.16;100.00;58328.31;5017155;28;20489;-77
2022/03/17 02:19:15;;;;;;;23.05;13.02;;;;;;;-148.16;100.00;58328.31;5032151;28;20049;-73
2022/03/17 02:22:00;;;;;;;22.50;12.65;;;;;;;-148.16;100.00;58328.31;5031949;28;20038;-75
2022/03/17 02:27:49;;;;;;;21.27;11.68;;;;;;;-148.16;100.00;58328.31;5032274;28;20045;-76
2022/03/17 02:30:37;;;;;;;21.48;12.68;;;;;;;-148.16;100.00;58328.31;5031724;28;20551;-76
2022/03/17 02:33:22;;;;;;;21.17;12.18;;;;;;;-148.16;100.00;58328.31;5031650;28;20045;-76
2022/03/17 02:36:09;;;;;;;24.92;12.18;;;;;;;-148.16;100.00;58328.31;5031577;28;20156;-75
2022/03/17 02:38:53;;;;;;;25.10;13.48;;;;;;;-148.16;100.00;58328.31;5031744;28;20073;-75
2022/03/17 02:41:38;;;;;;;23.27;12.88;;;;;;;-148.16;100.00;58328.31;5031898;28;20737;-70
2022/03/17 02:44:24;;;;;;;21.80;12.45;;;;;;;-148.16;100.00;58328.31;5044421;28;20045;-76
2022/03/17 02:47:09;;;;;;;25.33;14.05;;;;;;;-148.16;100.00;58328.31;5030665;28;20071;-76
2022/03/17 02:49:55;;;;;;;27.92;15.18;;;;;;;-148.16;100.00;58328.31;5031315;28;20448;-76
2022/03/17 02:52:41;;;;;;;24.20;13.65;;;;;;;-148.16;100.00;58328.31;5031420;28;20045;-76
2022/03/17 02:55:25;;;;;;;30.58;15.65;;;;;;;-148.16;100.00;58328.31;5031479;28;20496;-75
2022/03/17 02:58:11;;;;;;;25.75;14.45;;;;;;;-148.16;100.00;58328.31;5031575;28;20095;-73
2022/03/17 03:00:56;;;;;;;23.67;13.80;;;;;;;-148.16;100.00;58328.31;5030453;28;20654;-75
2022/03/17 03:03:41;;;;;;;21.98;12.10;;;;;;;-148.16;100.00;58328.31;5031160;28;20046;-74
2022/03/17 03:06:26;;;;;;;21.23;12.00;;;;;;;-148.16;100.00;58328.31;5044419;28;20045;-74
2022/03/17 03:09:13;;;;;;;25.00;12.45;;;;;;;-148.16;100.00;58328.31;5031238;28;20096;-75
2022/03/17 03:11:58;;;;;;;21.48;11.90;;;;;;;-148.16;100.00;58328.31;5031337;28;20048;-76
2022/03/17 03:14:43;;;;;;;21.65;12.57;;;;;;;-148.16;100.00;58328.31;5030926;28;20045;-76
2022/03/17 03:17:28;;;;;;;24.50;14.65;;;;;;;-148.16;100.00;58328.31;5034089;28;20558;-76
2022/03/17 03:20:13;;;;;;;25.83;14.63;;;;;;;-148.16;100.00;58328.31;5034151;28;20065;-76
2022/03/17 03:22:58;;;;;;;25.58;15.15;;;;;;;-148.16;100.00;58328.31;5035159;28;20041;-75
2022/03/17 03:25:43;;;;;;;26.88;14.93;;;;;;;-148.16;100.00;58328.31;5035028;28;20501;-74
2022/03/17 03:28:27;;;;;;;22.67;13.35;;;;;;;-148.16;100.00;58328.31;5034204;28;20044;-73
2022/03/17 03:31:12;;;;;;;30.67;14.38;;;;;;;-148.16;100.00;58328.31;5035207;28;20103;-74
2022/03/17 03:33:57;;;;;;;29.90;15.43;;;;;;;-148.16;100.00;58328.31;5033708;28;20065;-75
2022/03/17 03:39:45;;;;;;;24.75;14.13;;;;;;;-148.16;100.00;58328.31;5033543;28;20041;-76
2022/03/17 03:42:30;;;;;;;25.13;14.05;;;;;;;-148.16;100.00;58328.31;5033702;28;20065;-76
2022/03/17 03:45:15;;;;;;;23.40;13.18;;;;;;;-148.16;100.00;58328.31;5034084;28;20088;-76
2022/03/17 03:48:00;;;;;;;27.00;14.75;;;;;;;-148.16;100.00;58328.31;5034819;28;20071;-71
2022/03/17 03:50:46;;;;;;;23.92;13.23;;;;;;;-148.16;100.00;58328.31;5034729;28;20128;-76
2022/03/17 03:54:13;;;;;;;23.77;11.95;;;;;;;-148.16;100.00;58328.31;5034206;28;20037;-74
2022/03/17 03:56:35;;;;;;;23.73;11.43;;;;;;;-148.16;100.00;58328.31;5035430;28;20050;-76
2022/03/17 03:59:25;;;;;;;22.13;11.50;;;;;;;-148.16;100.00;58328.31;5041639;28;20050;-75
2022/03/17 04:02:10;;;;;;;22.02;12.32;;;;;;;-148.16;100.00;58328.31;5041201;28;20056;-73
2022/03/17 04:04:55;;;;;;;20.95;11.45;;;;;;;-148.16;100.00;58328.31;5037745;28;20095;-77
2022/03/17 04:07:40;;;;;;;20.35;11.15;;;;;;;-148.16;100.00;58328.31;5039586;28;20053;-74
2022/03/17 04:10:29;;;;;;;22.17;11.90;;;;;;;-148.16;100.00;58328.31;5045903;28;20150;-70
2022/03/17 04:13:14;;;;;;;23.83;13.35;;;;;;;-148.16;100.00;58328.31;5035611;28;20124;-67
2022/03/17 04:15:58;;;;;;;18.10;10.85;;;;;;;-148.16;100.00;58328.31;5031212;28;20045;-75
2022/03/17 04:18:44;;;;;;;20.30;11.85;;;;;;;-148.16;100.00;58328.31;5033150;28;20067;-71
2022/03/17 04:21:29;;;;;;;23.95;12.73;;;;;;;-148.16;100.00;58328.31;5033541;28;20057;-76
2022/03/17 04:24:14;;;;;;;22.45;12.45;;;;;;;-148.16;100.00;58328.31;5033018;28;20071;-75
2022/03/17 04:26:59;;;;;;;19.63;12.02;;;;;;;-148.16;100.00;58328.31;5033654;28;20103;-76
2022/03/17 04:29:44;;;;;;;19.40;11.18;;;;;;;-148.16;100.00;58328.31;5033023;28;20056;-75
2022/03/17 04:32:29;;;;;;;20.27;11.35;;;;;;;-148.16;100.00;58328.31;5043709;28;20037;-75
2022/03/17 04:35:13;;;;;;;21.77;11.68;;;;;;;-148.16;100.00;58328.31;5054292;28;20064;-76
2022/03/17 04:37:59;;;;;;;24.15;12.00;;;;;;;-148.16;100.00;58328.31;5053796;28;20053;-74
2022/03/17 04:40:49;;;;;;;24.70;14.93;;;;;;;-148.16;100.00;58328.31;5054078;28;20515;-69
2022/03/17 04:43:34;;;;;;;21.60;12.10;;;;;;;-148.16;100.00;58328.31;5049616;28;20045;-74
2022/03/17 04:46:20;;;;;;;21.55;11.52;;;;;;;-148.16;100.00;58328.31;5033329;28;20041;-75
2022/03/17 04:49:04;;;;;;;20.75;10.85;;;;;;;-148.16;100.00;58328.31;5033206;28;20116;-75
2022/03/17 04:51:50;;;;;;;26.52;12.93;;;;;;;-148.16;100.00;58328.31;5033517;28;20485;-74
2022/03/17 04:54:35;;;;;;;26.25;11.73;;;;;;;-148.16;100.00;58328.31;5033382;28;20041;-77
2022/03/17 04:57:22;;;;;;;21.35;11.50;;;;;;;-148.16;100.00;58328.31;5046775;28;20103;-77
2022/03/17 05:00:07;;;;;;;19.60;11.48;;;;;;;-148.16;100.00;58328.31;5032135;28;20068;-76
2022/03/17 05:02:54;;;;;;;19.92;11.80;;;;;;;-148.16;100.00;58328.31;5032365;28;20041;-75
2022/03/17 05:05:39;;;;;;;23.25;10.77;;;;;;;-148.16;100.00;58328.31;5032147;28;20046;-73
2022/03/17 05:08:24;;;;;;;18.17;11.23;;;;;;;-148.16;100.00;58328.31;5033370;28;20179;-75
2022/03/17 05:11:09;;;;;;;22.02;12.02;;;;;;;-148.16;100.00;58328.31;5032542;28;20041;-74
2022/03/17 05:13:55;;;;;;;23.23;11.68;;;;;;;-148.16;100.00;58328.31;5066325;28;20067;-76
2022/03/17 05:16:40;;;;;;;19.13;11.48;;;;;;;-148.16;100.00;58328.31;5033112;28;20052;-76
2022/03/17 05:19:24;;;;;;;20.95;10.65;;;;;;;-148.16;100.00;58328.31;5030454;28;20515;-75
2022/03/17 05:22:10;;;;;;;21.27;11.20;;;;;;;-148.16;100.00;58328.31;5030156;28;20034;-72
2022/03/17 05:24:55;;;;;;;19.88;11.07;;;;;;;-148.16;100.00;58328.31;5032995;28;20064;-73
2022/03/17 05:27:43;;;;;;;19.30;11.02;;;;;;;-148.16;100.00;58328.31;5032981;28;20050;-65
2022/03/17 05:30:28;;;;;;;20.40;11.38;;;;;;;-148.16;100.00;58328.31;5051976;28;20042;-67
2022/03/17 05:33:14;;;;;;;20.25;11.00;;;;;;;-148.16;100.00;58328.31;5032811;28;20045;-64
2022/03/17 05:35:58;;;;;;;21.00;11.25;;;;;;;-148.16;100.00;58328.31;5031736;28;20041;-71
2022/03/17 05:38:43;;;;;;;20.02;11.20;;;;;;;-148.16;100.00;58328.31;5031050;28;20543;-65
2022/03/17 05:41:28;;;;;;;15.25;6.50;;;;;;;-148.16;100.00;58328.31;5032712;28;20037;-70
2022/03/17 05:44:13;;;;;;;19.95;7.82;;;;;;;-148.16;100.00;58328.31;5017644;28;20037;-68
2022/03/17 05:47:00;;;;;;;19.80;7.78;;;;;;;-148.16;100.00;58328.31;5031542;28;20049;-68
2022/03/17 05:49:47;;;;;;;22.15;11.20;;;;;;;-148.16;100.00;58328.31;5031269;28;20099;-68
2022/03/17 05:52:32;;;;;;;18.38;9.68;;;;;;;-148.16;100.00;58328.31;5031571;28;20052;-69
2022/03/17 05:55:20;;;;;;;18.05;9.27;;;;;;;-148.16;100.00;58328.31;5031170;28;20045;-67
2022/03/17 05:58:05;;;;;;;18.90;8.15;;;;;;;-148.16;100.00;58328.31;5032310;28;20049;-68
2022/03/17 06:00:50;;;;;;;15.82;7.75;;;;;;;-148.16;100.00;58328.31;5030098;28;20041;-67
2022/03/17 06:03:35;;;;;;;19.25;10.45;;;;;;;-148.16;100.00;58328.31;5030711;28;20443;-66
2022/03/17 06:06:19;;;;;;;16.30;9.02;;;;;;;-148.16;100.00;58328.31;5049107;28;20037;-66
2022/03/17 06:09:04;;;;;;;16.73;9.13;;;;;;;-148.16;100.00;58328.31;5028197;28;20042;-69
2022/03/17 06:11:50;;;;;;;16.23;9.50;;;;;;;-148.16;100.00;58328.31;5030309;28;20153;-69
2022/03/17 06:14:35;;;;;;;21.98;10.32;;;;;;;-148.16;100.00;58328.31;5030883;28;20057;-69
2022/03/17 06:17:20;;;;;;;22.08;10.55;;;;;;;-148.16;100.00;58328.31;5031717;28;20060;-70
2022/03/17 06:20:09;;;;;;;21.52;11.77;;;;;;;-148.16;100.00;58328.31;5030741;28;20076;-70
2022/03/17 06:22:56;;;;;;;16.98;10.20;;;;;;;-148.16;100.00;58328.31;5031297;28;20052;-68
2022/03/17 06:25:41;;;;;;;16.17;10.32;;;;;;;-148.16;100.00;58328.31;5030998;28;20160;-67
2022/03/17 06:28:26;;;;;;;22.95;11.77;;;;;;;-148.16;100.00;58328.31;5013542;28;20064;-67
2022/03/17 06:31:12;;;;;;;23.15;13.45;;;;;;;-148.16;100.00;58328.31;5028002;28;20560;-66
2022/03/17 06:33:58;;;;;;;20.23;9.55;;;;;;;-148.16;100.00;58328.31;5031538;28;20057;-46
2022/03/17 06:36:44;;;;;;;21.48;11.25;;;;;;;-148.16;100.00;58328.31;5016681;28;20491;-70
2022/03/17 06:39:28;;;;;;;21.60;11.95;;;;;;;-148.16;100.00;58328.31;5031465;28;20045;-69
2022/03/17 06:42:13;;;;;;;24.92;12.65;;;;;;;-148.16;100.00;58328.31;5031169;28;20052;-68
2022/03/17 06:44:58;;;;;;;23.73;12.73;;;;;;;-148.16;100.00;58328.31;5027729;28;20045;-67
2022/03/17 06:47:44;;;;;;;21.10;11.43;;;;;;;-148.16;100.00;58328.31;5027080;28;20065;-67
2022/03/17 06:50:30;;;;;;;23.30;11.82;;;;;;;-148.16;100.00;58328.31;5028474;28;20041;-69
2022/03/17 06:53:14;;;;;;;19.17;12.05;;;;;;;-148.16;100.00;58328.31;5027211;28;20038;-71
2022/03/17 06:55:59;;;;;;;21.60;12.88;;;;;;;-148.16;100.00;58328.31;5013709;28;20045;-71
2022/03/17 06:58:44;;;;;;;22.25;12.80;;;;;;;-148.16;100.00;58328.31;5009355;28;20435;-70
2022/03/17 07:01:29;;;;;;;21.40;12.02;;;;;;;-148.16;100.00;58328.31;5029332;28;20091;-71
2022/03/17 07:04:14;;;;;;;22.63;12.27;;;;;;;-148.16;100.00;58328.31;5026173;28;20044;-72
2022/03/17 07:06:59;;;;;;;18.25;11.90;;;;;;;-148.16;100.00;58328.31;5001944;28;20064;-70
2022/03/17 07:09:44;;;;;;;20.77;11.80;;;;;;;-148.16;100.00;58328.31;5027919;28;20116;-72
2022/03/17 07:12:29;;;;;;;26.38;14.32;;;;;;;-148.16;100.00;58328.31;5027226;28;20409;-71
2022/03/17 07:15:14;;;;;;;25.08;14.15;;;;;;;-148.16;100.00;58328.31;5030663;28;20071;-71
2022/03/17 07:17:59;;;;;;;21.95;12.38;;;;;;;-148.16;100.00;58328.31;5030771;28;20382;-71
2022/03/17 07:20:44;;;;;;;23.48;12.30;;;;;;;-148.16;100.00;58328.31;5029826;28;20378;-72
2022/03/17 07:23:29;;;;;;;20.83;12.63;;;;;;;-148.16;100.00;58328.31;5013399;28;20045;-71
2022/03/17 07:26:13;;;;;;;21.98;11.65;;;;;;;-148.16;100.00;58328.31;5030609;28;20053;-70
2022/03/17 07:29:01;;;;;;;21.70;11.68;;;;;;;-148.16;100.00;58328.31;5029109;28;20072;-70
2022/03/17 07:31:46;;;;;;;22.83;12.70;;;;;;;-148.16;100.00;58328.31;5016872;28;20049;-69
2022/03/17 07:34:31;;;;;;;24.38;13.25;;;;;;;-148.16;100.00;58328.31;5030653;28;20053;-70
2022/03/17 07:37:16;;;;;;;21.02;12.60;;;;;;;-148.16;100.00;58328.31;5030939;28;20049;-72
2022/03/17 07:40:02;;;;;;;21.25;12.52;;;;;;;-148.16;100.00;58328.31;5031297;28;20053;-70
2022/03/17 07:42:47;;;;;;;24.85;13.63;;;;;;;-148.16;100.00;58328.31;5029998;28;20123;-69
2022/03/17 07:45:43;;;;;;;24.10;12.93;;;;;;;-148.16;100.00;58328.31;5030251;28;20045;-70
2022/03/17 07:48:57;;;;;;;20.52;12.38;;;;;;;-148.16;100.00;58328.31;5028801;28;20121;-70
2022/03/17 07:51:50;;;;;;;22.40;12.80;;;;;;;-148.16;100.00;58328.31;5029766;28;20088;-71
2022/03/17 07:54:35;;;;;;;24.23;13.65;;;;;;;-148.16;100.00;58328.31;5029744;28;20041;-69
2022/03/17 07:57:20;;;;;;;25.02;14.00;;;;;;;-148.16;100.00;58328.31;5030281;28;20045;-70
2022/03/17 08:00:11;;;;;;;26.08;13.57;;;;;;;-148.16;100.00;58328.31;5031228;28;20049;-69
2022/03/17 08:03:03;;;;;;;29.73;15.35;;;;;;;-148.16;100.00;58328.31;5031644;28;20510;-70
2022/03/17 08:05:49;;;;;;;27.20;15.32;;;;;;;-148.16;100.00;58328.31;5034554;28;20489;-70
2022/03/17 08:08:34;;;;;;;27.95;14.55;;;;;;;-148.16;100.00;58328.31;5047496;28;20108;-70
2022/03/17 08:11:23;;;;;;;29.00;16.23;;;;;;;-148.16;100.00;58328.31;5033726;28;20041;-69
2022/03/17 08:14:08;;;;;;;32.08;17.63;;;;;;;-148.16;100.00;58328.31;5033901;28;20072;-71
2022/03/17 08:16:54;;;;;;;32.67;17.73;;;;;;;-148.16;100.00;58328.31;5047457;28;20111;-69
2022/03/17 08:19:39;;;;;;;34.03;16.60;;;;;;;-148.16;100.00;58328.31;5018981;28;20063;-69
2022/03/17 08:22:25;;;;;;;25.33;15.57;;;;;;;-148.16;100.00;58328.31;5033769;28;20507;-70
2022/03/17 08:25:09;;;;;;;29.38;16.15;;;;;;;-148.16;100.00;58328.31;5033923;28;20477;-69
2022/03/17 08:27:55;;;;;;;28.48;14.65;;;;;;;-148.16;100.00;58328.31;5047017;28;20045;-70
2022/03/17 08:30:40;;;;;;;28.05;14.43;;;;;;;-148.16;100.00;58328.31;5035152;28;20038;-70
2022/03/17 08:33:25;;;;;;;30.80;15.57;;;;;;;-148.16;100.00;58328.31;5035796;28;20556;-71
2022/03/17 08:36:10;;;;;;;28.75;14.90;;;;;;;-148.16;100.00;58328.31;5036470;28;20057;-69
2022/03/17 08:38:55;;;;;;;24.63;14.15;;;;;;;-148.16;100.00;58328.31;5033825;28;20053;-70
2022/03/17 08:41:40;;;;;;;24.55;13.80;;;;;;;-148.16;100.00;58328.31;5034413;28;20045;-69
2022/03/17 08:44:25;;;;;;;27.55;15.75;;;;;;;-148.16;100.00;58328.31;5034101;28;20041;-69
2022/03/17 08:50:13;;;;;;;24.58;13.43;;;;;;;-148.16;100.00;58328.31;5037144;28;20077;-71
2022/03/17 08:52:59;;;;;;;28.10;13.10;;;;;;;-148.16;100.00;58328.31;5020381;28;20037;-69
2022/03/17 08:55:44;;;;;;;24.52;13.13;;;;;;;-148.16;100.00;58328.31;5033277;28;20068;-70
2022/03/17 08:58:30;;;;;;;23.67;13.38;;;;;;;-148.16;100.00;58328.31;5061271;28;20162;-65
2022/03/17 09:01:15;;;;;;;24.35;13.32;;;;;;;-148.16;100.00;58328.31;5032747;28;20152;-70
2022/03/17 09:04:01;;;;;;;27.02;13.38;;;;;;;-148.16;100.00;58328.31;5032548;28;20042;-67
2022/03/17 09:06:46;;;;;;;23.52;12.98;;;;;;;-148.16;100.00;58328.31;5060174;28;20041;-68
2022/03/17 09:09:33;;;;;;;26.50;13.40;;;;;;;-148.16;100.00;58328.31;5031575;28;20389;-66
2022/03/17 09:12:18;;;;;;;21.25;12.73;;;;;;;-148.16;100.00;58328.31;5031004;28;20038;-68
2022/03/17 09:15:05;;;;;;;22.73;12.98;;;;;;;-148.16;100.00;58328.31;5016185;28;20687;-63
2022/03/17 09:17:51;;;;;;;26.92;14.00;;;;;;;-148.16;100.00;58328.31;5027210;28;20045;-69
2022/03/17 09:20:37;;;;;;;25.33;12.93;;;;;;;-148.16;100.00;58328.31;5031373;28;20103;-70
2022/03/17 09:23:22;;;;;;;27.60;14.73;;;;;;;-148.16;100.00;58328.31;5032151;28;20033;-71
2022/03/17 09:26:07;;;;;;;23.23;13.02;;;;;;;-148.16;100.00;58328.31;5025388;28;20456;-71
2022/03/17 09:28:52;;;;;;;21.02;13.10;;;;;;;-148.16;100.00;58328.31;5029724;28;20412;-69
2022/03/17 09:31:37;;;;;;;26.13;13.60;;;;;;;-148.16;100.00;58328.31;5033134;28;20046;-68
2022/03/17 09:34:22;;;;;;;30.02;14.18;;;;;;;-148.16;100.00;58328.31;5017770;28;20463;-69
2022/03/17 09:37:08;;;;;;;24.10;13.38;;;;;;;-148.16;100.00;58328.31;5017896;28;20077;-70
2022/03/17 09:39:52;;;;;;;26.33;13.38;;;;;;;-148.16;100.00;58328.31;5033140;28;20050;-70
2022/03/17 09:42:38;;;;;;;25.83;13.65;;;;;;;-148.16;100.00;58328.31;5032990;28;20045;-71
2022/03/17 09:45:24;;;;;;;23.42;13.23;;;;;;;-148.16;100.00;58328.31;5032640;28;20409;-72
2022/03/17 09:48:13;;;;;;;23.15;14.07;;;;;;;-148.16;100.00;58328.31;5031440;28;20041;-70
2022/03/17 09:50:59;;;;;;;26.58;15.35;;;;;;;-148.16;100.00;58328.31;5032556;28;20052;-69
2022/03/17 09:53:44;;;;;;;27.88;14.52;;;;;;;-148.16;100.00;58328.31;5045595;28;20535;-70
2022/03/17 09:56:29;;;;;;;26.08;14.60;;;;;;;-148.16;100.00;58328.31;5031408;28;20408;-69
2022/03/17 09:59:15;;;;;;;22.15;11.57;;;;;;;-148.16;100.00;58328.31;5035410;28;20054;-70
2022/03/17 10:02:00;;;;;;;26.42;13.25;;;;;;;-148.16;100.00;58328.31;5033527;28;20030;-68
2022/03/17 10:04:48;;;;;;;26.42;14.30;;;;;;;-148.16;100.00;58328.31;5032035;28;20044;-68
2022/03/17 10:07:35;;;;;;;26.42;13.80;;;;;;;-148.16;100.00;58328.31;5032168;28;20045;-67
2022/03/17 10:10:34;;;;;;;24.67;13.85;;;;;;;-148.16;100.00;58328.31;5031190;28;20115;-69
2022/03/17 10:13:23;;;;;;;26.08;14.32;;;;;;;-148.16;100.00;58328.31;5032236;28;20053;-66
2022/03/17 10:16:12;;;;;;;28.88;13.80;;;;;;;-148.16;100.00;58328.31;5029232;28;20052;-39
2022/03/17 10:19:21;;;;;;;27.10;13.82;;;;;;;-148.16;100.00;58328.31;5059358;28;20473;-67
2022/03/17 10:22:12;;;;;;;25.63;13.48;;;;;;;-148.16;100.00;58328.31;5049190;28;20044;-68
2022/03/17 10:24:57;;;;;;;25.95;14.80;;;;;;;-148.16;100.00;58328.31;5029799;28;20037;-67
2022/03/17 10:27:49;;;;;;;26.92;13.45;;;;;;;-148.16;100.00;58328.31;5031251;28;20045;-66
2022/03/17 10:30:36;;;;;;;23.55;13.15;;;;;;;-148.16;100.00;58328.31;5042964;28;20497;-67
2022/03/17 10:33:22;;;;;;;28.33;14.00;;;;;;;-148.16;100.00;58328.31;5030084;28;20396;-69
2022/03/17 10:36:20;;;;;;;24.25;12.70;;;;;;;-148.16;100.00;58328.31;5029961;28;20045;-68
2022/03/17 10:39:08;;;;;;;25.85;12.88;;;;;;;-148.16;100.00;58328.31;5030819;28;20050;-67
2022/03/17 10:41:54;;;;;;;24.10;12.98;;;;;;;-148.16;100.00;58328.31;5031000;28;20037;-69
2022/03/17 10:44:40;;;;;;;27.55;14.30;;;;;;;-148.16;100.00;58328.31;5028473;28;20038;-65
2022/03/17 10:47:34;;;;;;;22.10;10.80;;;;;;;-148.16;100.00;58328.31;5030951;28;20137;-67
2022/03/17 10:50:20;;;;;;;16.98;9.77;;;;;;;-148.16;100.00;58328.31;5030054;28;20069;-57
2022/03/17 10:53:04;;;;;;;21.15;12.15;;;;;;;-148.16;100.00;58328.31;5016506;28;20117;-60
2022/03/17 10:55:49;;;;;;;26.75;12.70;;;;;;;-148.16;100.00;58328.31;5031801;28;20038;-56
2022/03/17 10:58:42;;;;;;;26.58;13.15;;;;;;;-148.16;100.00;58328.31;5030041;28;20460;-58
2022/03/17 11:01:45;;;;;;;22.38;9.55;;;;;;;-148.16;100.00;58328.31;5031732;28;20049;-57
2022/03/17 11:04:30;;;;;;;18.75;10.38;;;;;;;-148.16;100.00;58328.31;5016311;28;20055;-59
2022/03/17 11:07:16;;;;;;;24.75;12.65;;;;;;;-148.16;100.00;58328.31;5030260;28;20774;-57
2022/03/17 11:10:07;;;;;;;20.20;11.30;;;;;;;-148.16;100.00;58328.31;5031338;28;20045;-59
2022/03/17 11:12:52;;;;;;;25.98;12.32;;;;;;;-148.16;100.00;58328.31;5016607;28;20449;-59
2022/03/17 11:15:40;;;;;;;20.58;12.13;;;;;;;-148.16;100.00;58328.31;5050849;28;20092;-58
2022/03/17 11:18:27;;;;;;;19.17;10.95;;;;;;;-148.16;100.00;58328.31;5037154;28;20123;-63
2022/03/17 11:21:17;;;;;;;20.15;11.30;;;;;;;-148.16;100.00;58328.31;5034926;28;20041;-58
2022/03/17 11:24:05;;;;;;;20.80;11.52;;;;;;;-148.16;100.00;58328.31;5031574;28;20052;-58
2022/03/17 11:27:07;;;;;;;20.73;11.80;;;;;;;-148.16;100.00;58328.31;5031318;28;20045;-61
2022/03/17 11:29:55;;;;;;;18.17;9.77;;;;;;;-148.16;100.00;58328.31;5016533;28;20405;-59
2022/03/17 11:32:54;;;;;;;22.42;11.02;;;;;;;-148.16;100.00;58328.31;5031002;28;20128;-57
2022/03/17 11:35:40;;;;;;;17.67;9.85;;;;;;;-148.16;100.00;58328.31;5043847;28;20058;-57
2022/03/17 11:38:27;;;;;;;19.02;10.70;;;;;;;-148.16;100.00;58328.31;5032218;28;20068;-59
2022/03/17 11:41:20;;;;;;;17.10;11.38;;;;;;;-148.16;100.00;58328.31;5034726;28;20045;-59
2022/03/17 11:44:05;;;;;;;22.00;12.73;;;;;;;-148.16;100.00;58328.31;5034860;28;20048;-59
2022/03/17 11:46:51;;;;;;;18.73;10.50;;;;;;;-148.16;100.00;58328.31;5034768;28;20053;-58
2022/03/17 11:49:46;;;;;;;21.45;11.00;;;;;;;-148.16;100.00;58328.31;5034845;28;20049;-58
2022/03/17 11:52:31;;;;;;;22.75;12.68;;;;;;;-148.16;100.00;58328.31;5047252;28;20046;-58
2022/03/17 11:55:31;;;;;;;21.80;11.80;;;;;;;-148.16;100.00;58328.31;5033231;28;20826;-57
2022/03/17 11:58:16;;;;;;;24.85;14.02;;;;;;;-148.16;100.00;58328.31;5034934;28;20048;-58
2022/03/17 12:01:13;;;;;;;20.70;11.13;;;;;;;-148.16;100.00;58328.31;5049269;28;20499;-58
2022/03/17 12:04:05;;;;;;;17.40;10.15;;;;;;;-148.16;100.00;58328.31;5032730;28;20049;-58
2022/03/17 12:06:55;;;;;;;24.73;13.20;;;;;;;-148.16;100.00;58328.31;5033641;28;20045;-58
2022/03/17 12:09:40;;;;;;;25.45;13.68;;;;;;;-148.16;100.00;58328.31;5044728;28;20045;-56
2022/03/17 12:12:27;;;;;;;21.10;12.70;;;;;;;-148.16;100.00;58328.31;5030796;28;20037;-57
2022/03/17 12:15:39;;;;;;;26.98;14.25;;;;;;;-148.16;100.00;58328.31;5045436;28;20046;-57
2022/03/17 12:18:24;;;;;;;25.65;13.10;;;;;;;-148.16;100.00;58328.31;5045148;28;20056;-55
2022/03/17 12:21:09;;;;;;;19.42;11.20;;;;;;;-148.16;100.00;58328.31;5033588;28;20115;-59
2022/03/17 12:23:54;;;;;;;24.08;13.68;;;;;;;-148.16;100.00;58328.31;5041127;28;20061;-59
2022/03/17 12:26:39;;;;;;;25.67;14.07;;;;;;;-148.16;100.00;58328.31;5032718;28;20377;-58
2022/03/17 12:29:27;;;;;;;20.83;11.98;;;;;;;-148.16;100.00;58328.31;5033055;28;20053;-58
2022/03/17 12:32:15;;;;;;;28.85;14.95;;;;;;;-148.16;100.00;58328.31;5033829;28;20041;-60